Overview Statistics Trail Chart Weather Telemetry Raw packets
 

This is the latest recevied weather packets stored in our database for station/object EA1JAV-10. If no packets are shown the sender has not sent any weather packets the latest 10 day(s).

<< 3 4 5 6 7 8 9 >>
Time Temp. Humidity Pressure Rain* Wind** Luminosity Snow
1788392208 23.33° C 43% 1008.6 hPa - - - -
1788390408 23.89° C 43% 1008.6 hPa - - - -
1788388608 24.44° C 42% 1008.7 hPa - - - -
1788386808 24.44° C 42% 1008.8 hPa - - - -
1788385008 24.44° C 42% 1008.8 hPa - - - -
1788383208 24.44° C 43% 1008.9 hPa - - - -
1788381408 24.44° C 41% 1008.6 hPa - - - -
1788379608 25.56° C 40% 1008.4 hPa - - - -
1788377808 25.56° C 40% 1007.9 hPa - - - -
1788376008 25.56° C 40% 1007.7 hPa - - - -
1788374207 25.56° C 40% 1007.7 hPa - - - -
1788372407 26.11° C 40% 1007.5 hPa - - - -
1788370607 26.11° C 38% 1007.4 hPa - - - -
1788368807 26.67° C 35% 1007.1 hPa - - - -
1788367007 26.67° C 33% 1007.1 hPa - - - -
1788365207 26.67° C 29% 1007.1 hPa - - - -
1788363407 26.67° C 27% 1007.3 hPa - - - -
1788361607 25.56° C 28% 1007.4 hPa - - - -
1788359807 25° C 34% 1007.6 hPa - - - -
1788358007 25° C 35% 1007.8 hPa - - - -
1788356207 24.44° C 36% 1008 hPa - - - -
1788354407 23.89° C 38% 1008 hPa - - - -
1788352606 23.33° C 41% 1008.3 hPa - - - -
1788350806 22.78° C 44% 1008.5 hPa - - - -
1788349006 21.67° C 45% 1008.9 hPa - - - -

* Rain since midnight (hover to see other rain measurements)
** Current wind speed in m/s (hover to see current wind gust speed)